sensor_id;sensor_type;location;lat;lon;timestamp;pressure;altitude;pressure_sealevel;temperature
65290;BMP180;51893;59.754;10.110;2023-04-19T00:02:12;104141.80;;;5.70
65290;BMP180;51893;59.754;10.110;2023-04-19T00:04:39;104140.60;;;5.70
65290;BMP180;51893;59.754;10.110;2023-04-19T00:07:06;104142.80;;;5.66
65290;BMP180;51893;59.754;10.110;2023-04-19T00:09:32;104139.80;;;5.60
65290;BMP180;51893;59.754;10.110;2023-04-19T00:11:59;104142.00;;;5.60
65290;BMP180;51893;59.754;10.110;2023-04-19T00:14:30;104140.20;;;5.60
65290;BMP180;51893;59.754;10.110;2023-04-19T00:16:57;104136.80;;;5.58
65290;BMP180;51893;59.754;10.110;2023-04-19T00:19:35;104137.00;;;5.50
65290;BMP180;51893;59.754;10.110;2023-04-19T00:22:02;104136.40;;;5.50
65290;BMP180;51893;59.754;10.110;2023-04-19T00:24:29;104140.60;;;5.46
65290;BMP180;51893;59.754;10.110;2023-04-19T00:26:57;104144.00;;;5.40
65290;BMP180;51893;59.754;10.110;2023-04-19T00:29:24;104140.40;;;5.40
65290;BMP180;51893;59.754;10.110;2023-04-19T00:31:51;104142.20;;;5.40
65290;BMP180;51893;59.754;10.110;2023-04-19T00:34:18;104143.40;;;5.40
65290;BMP180;51893;59.754;10.110;2023-04-19T00:36:45;104148.80;;;5.40
65290;BMP180;51893;59.754;10.110;2023-04-19T00:39:12;104146.20;;;5.40
65290;BMP180;51893;59.754;10.110;2023-04-19T00:41:42;104146.40;;;5.38
65290;BMP180;51893;59.754;10.110;2023-04-19T00:44:09;104148.20;;;5.30
65290;BMP180;51893;59.754;10.110;2023-04-19T00:46:38;104149.20;;;5.30
65290;BMP180;51893;59.754;10.110;2023-04-19T00:49:06;104152.20;;;5.30
65290;BMP180;51893;59.754;10.110;2023-04-19T00:51:33;104156.80;;;5.30
65290;BMP180;51893;59.754;10.110;2023-04-19T00:54:04;104153.20;;;5.30
65290;BMP180;51893;59.754;10.110;2023-04-19T00:56:34;104152.60;;;5.30
65290;BMP180;51893;59.754;10.110;2023-04-19T00:59:01;104157.60;;;5.30
65290;BMP180;51893;59.754;10.110;2023-04-19T01:01:28;104157.80;;;5.30
65290;BMP180;51893;59.754;10.110;2023-04-19T01:03:57;104160.60;;;5.30
65290;BMP180;51893;59.754;10.110;2023-04-19T01:06:28;104162.60;;;5.30
65290;BMP180;51893;59.754;10.110;2023-04-19T01:08:56;104164.00;;;5.30
65290;BMP180;51893;59.754;10.110;2023-04-19T01:11:24;104167.00;;;5.28
65290;BMP180;51893;59.754;10.110;2023-04-19T01:13:56;104168.00;;;5.20
65290;BMP180;51893;59.754;10.110;2023-04-19T01:16:27;104163.80;;;5.20
65290;BMP180;51893;59.754;10.110;2023-04-19T01:18:54;104164.00;;;5.20
65290;BMP180;51893;59.754;10.110;2023-04-19T01:21:20;104164.80;;;5.16
65290;BMP180;51893;59.754;10.110;2023-04-19T01:23:50;104161.60;;;5.10
65290;BMP180;51893;59.754;10.110;2023-04-19T01:26:18;104165.40;;;5.10
65290;BMP180;51893;59.754;10.110;2023-04-19T01:28:44;104166.60;;;5.10
65290;BMP180;51893;59.754;10.110;2023-04-19T01:31:11;104167.20;;;5.00
65290;BMP180;51893;59.754;10.110;2023-04-19T01:33:41;104165.00;;;4.98
65290;BMP180;51893;59.754;10.110;2023-04-19T01:36:07;104172.00;;;4.90
65290;BMP180;51893;59.754;10.110;2023-04-19T01:38:37;104168.40;;;4.90
65290;BMP180;51893;59.754;10.110;2023-04-19T01:41:05;104169.00;;;4.90
65290;BMP180;51893;59.754;10.110;2023-04-19T01:43:34;104167.20;;;4.80
65290;BMP180;51893;59.754;10.110;2023-04-19T01:46:01;104171.00;;;4.80
65290;BMP180;51893;59.754;10.110;2023-04-19T01:48:28;104165.20;;;4.76
65290;BMP180;51893;59.754;10.110;2023-04-19T01:50:58;104163.80;;;4.70
65290;BMP180;51893;59.754;10.110;2023-04-19T01:53:24;104166.60;;;4.70
65290;BMP180;51893;59.754;10.110;2023-04-19T01:55:51;104168.20;;;4.64
65290;BMP180;51893;59.754;10.110;2023-04-19T01:58:19;104168.00;;;4.60
65290;BMP180;51893;59.754;10.110;2023-04-19T02:00:46;104161.40;;;4.50
65290;BMP180;51893;59.754;10.110;2023-04-19T02:03:14;104162.80;;;4.60
65290;BMP180;51893;59.754;10.110;2023-04-19T02:05:41;104165.00;;;4.60
65290;BMP180;51893;59.754;10.110;2023-04-19T02:08:08;104165.40;;;4.60
65290;BMP180;51893;59.754;10.110;2023-04-19T02:10:34;104166.60;;;4.60
65290;BMP180;51893;59.754;10.110;2023-04-19T02:13:04;104168.00;;;4.60
65290;BMP180;51893;59.754;10.110;2023-04-19T02:15:31;104169.80;;;4.60
65290;BMP180;51893;59.754;10.110;2023-04-19T02:18:01;104172.20;;;4.60
65290;BMP180;51893;59.754;10.110;2023-04-19T02:20:32;104180.60;;;4.70
65290;BMP180;51893;59.754;10.110;2023-04-19T02:22:59;104182.20;;;4.64
65290;BMP180;51893;59.754;10.110;2023-04-19T02:25:25;104179.80;;;4.64
65290;BMP180;51893;59.754;10.110;2023-04-19T02:27:51;104178.60;;;4.60
65290;BMP180;51893;59.754;10.110;2023-04-19T02:30:19;104182.20;;;4.60
65290;BMP180;51893;59.754;10.110;2023-04-19T02:32:50;104174.60;;;4.60
65290;BMP180;51893;59.754;10.110;2023-04-19T02:35:16;104183.40;;;4.52
65290;BMP180;51893;59.754;10.110;2023-04-19T02:37:45;104176.00;;;4.50
65290;BMP180;51893;59.754;10.110;2023-04-19T02:40:12;104182.40;;;4.40
65290;BMP180;51893;59.754;10.110;2023-04-19T02:42:38;104180.80;;;4.34
65290;BMP180;51893;59.754;10.110;2023-04-19T02:45:06;104175.80;;;4.30
65290;BMP180;51893;59.754;10.110;2023-04-19T02:47:33;104178.80;;;4.30
65290;BMP180;51893;59.754;10.110;2023-04-19T02:50:00;104174.00;;;4.30
65290;BMP180;51893;59.754;10.110;2023-04-19T02:52:28;104175.20;;;4.20
65290;BMP180;51893;59.754;10.110;2023-04-19T02:54:54;104175.60;;;4.20
65290;BMP180;51893;59.754;10.110;2023-04-19T02:57:21;104166.80;;;4.20
65290;BMP180;51893;59.754;10.110;2023-04-19T02:59:48;104163.60;;;4.20
65290;BMP180;51893;59.754;10.110;2023-04-19T03:02:16;104159.60;;;4.20
65290;BMP180;51893;59.754;10.110;2023-04-19T03:04:43;104160.00;;;4.18
65290;BMP180;51893;59.754;10.110;2023-04-19T03:07:12;104161.80;;;4.12
65290;BMP180;51893;59.754;10.110;2023-04-19T03:09:39;104152.80;;;4.10
65290;BMP180;51893;59.754;10.110;2023-04-19T03:12:07;104151.00;;;4.00
65290;BMP180;51893;59.754;10.110;2023-04-19T03:14:36;104155.20;;;4.00
65290;BMP180;51893;59.754;10.110;2023-04-19T03:17:02;104157.40;;;4.00
65290;BMP180;51893;59.754;10.110;2023-04-19T03:19:29;104153.00;;;3.90
65290;BMP180;51893;59.754;10.110;2023-04-19T03:21:58;104154.80;;;3.90
65290;BMP180;51893;59.754;10.110;2023-04-19T03:24:31;104154.40;;;3.90
65290;BMP180;51893;59.754;10.110;2023-04-19T03:26:59;104154.20;;;3.90
65290;BMP180;51893;59.754;10.110;2023-04-19T03:29:26;104152.80;;;3.88
65290;BMP180;51893;59.754;10.110;2023-04-19T03:31:53;104152.20;;;3.80
65290;BMP180;51893;59.754;10.110;2023-04-19T03:34:20;104155.40;;;3.80
65290;BMP180;51893;59.754;10.110;2023-04-19T03:36:47;104154.20;;;3.72
65290;BMP180;51893;59.754;10.110;2023-04-19T03:39:14;104154.20;;;3.70
65290;BMP180;51893;59.754;10.110;2023-04-19T03:41:41;104162.40;;;3.70
65290;BMP180;51893;59.754;10.110;2023-04-19T03:44:07;104159.00;;;3.80
65290;BMP180;51893;59.754;10.110;2023-04-19T03:46:34;104162.40;;;3.80
65290;BMP180;51893;59.754;10.110;2023-04-19T03:49:01;104158.40;;;3.74
65290;BMP180;51893;59.754;10.110;2023-04-19T03:51:28;104161.80;;;3.80
65290;BMP180;51893;59.754;10.110;2023-04-19T03:53:54;104164.60;;;3.80
65290;BMP180;51893;59.754;10.110;2023-04-19T03:56:21;104163.40;;;3.78
65290;BMP180;51893;59.754;10.110;2023-04-19T03:58:52;104160.00;;;3.80
65290;BMP180;51893;59.754;10.110;2023-04-19T04:01:19;104155.80;;;3.80
65290;BMP180;51893;59.754;10.110;2023-04-19T04:03:47;104160.60;;;3.70
65290;BMP180;51893;59.754;10.110;2023-04-19T04:06:14;104153.80;;;3.68
65290;BMP180;51893;59.754;10.110;2023-04-19T04:08:42;104157.00;;;3.60
65290;BMP180;51893;59.754;10.110;2023-04-19T04:11:08;104154.40;;;3.50
65290;BMP180;51893;59.754;10.110;2023-04-19T04:13:35;104152.00;;;3.50
65290;BMP180;51893;59.754;10.110;2023-04-19T04:16:03;104150.20;;;3.50
65290;BMP180;51893;59.754;10.110;2023-04-19T04:18:30;104154.00;;;3.50
65290;BMP180;51893;59.754;10.110;2023-04-19T04:20:57;104150.40;;;3.50
65290;BMP180;51893;59.754;10.110;2023-04-19T04:23:25;104153.00;;;3.50
65290;BMP180;51893;59.754;10.110;2023-04-19T04:25:57;104161.00;;;3.50
65290;BMP180;51893;59.754;10.110;2023-04-19T04:28:28;104155.00;;;3.50
65290;BMP180;51893;59.754;10.110;2023-04-19T04:30:56;104160.20;;;3.50
65290;BMP180;51893;59.754;10.110;2023-04-19T04:33:27;104155.60;;;3.50
65290;BMP180;51893;59.754;10.110;2023-04-19T04:35:55;104162.20;;;3.50
65290;BMP180;51893;59.754;10.110;2023-04-19T04:38:25;104160.60;;;3.50
65290;BMP180;51893;59.754;10.110;2023-04-19T04:40:54;104159.20;;;3.40
65290;BMP180;51893;59.754;10.110;2023-04-19T04:43:24;104154.60;;;3.40
65290;BMP180;51893;59.754;10.110;2023-04-19T04:45:51;104154.80;;;3.40
65290;BMP180;51893;59.754;10.110;2023-04-19T04:48:20;104151.20;;;3.40
65290;BMP180;51893;59.754;10.110;2023-04-19T04:50:48;104155.20;;;3.40
65290;BMP180;51893;59.754;10.110;2023-04-19T04:53:14;104158.00;;;3.40
65290;BMP180;51893;59.754;10.110;2023-04-19T04:55:42;104151.60;;;3.38
65290;BMP180;51893;59.754;10.110;2023-04-19T04:58:10;104153.40;;;3.40
65290;BMP180;51893;59.754;10.110;2023-04-19T05:00:36;104150.80;;;3.40
65290;BMP180;51893;59.754;10.110;2023-04-19T05:03:04;104154.80;;;3.40
65290;BMP180;51893;59.754;10.110;2023-04-19T05:05:32;104148.80;;;3.48
65290;BMP180;51893;59.754;10.110;2023-04-19T05:07:59;104148.00;;;3.50
65290;BMP180;51893;59.754;10.110;2023-04-19T05:10:27;104149.80;;;3.54
65290;BMP180;51893;59.754;10.110;2023-04-19T05:12:57;104149.80;;;3.70
65290;BMP180;51893;59.754;10.110;2023-04-19T05:15:26;104152.80;;;3.70
65290;BMP180;51893;59.754;10.110;2023-04-19T05:17:52;104150.80;;;3.70
65290;BMP180;51893;59.754;10.110;2023-04-19T05:20:19;104151.20;;;3.80
65290;BMP180;51893;59.754;10.110;2023-04-19T05:22:47;104153.60;;;3.82
65290;BMP180;51893;59.754;10.110;2023-04-19T05:25:13;104153.80;;;3.90
65290;BMP180;51893;59.754;10.110;2023-04-19T05:27:40;104156.20;;;3.90
65290;BMP180;51893;59.754;10.110;2023-04-19T05:30:08;104155.00;;;4.00
65290;BMP180;51893;59.754;10.110;2023-04-19T05:32:34;104145.80;;;4.00
65290;BMP180;51893;59.754;10.110;2023-04-19T05:35:02;104143.40;;;4.00
65290;BMP180;51893;59.754;10.110;2023-04-19T05:37:34;104145.00;;;4.10
65290;BMP180;51893;59.754;10.110;2023-04-19T05:40:06;104143.20;;;4.18
65290;BMP180;51893;59.754;10.110;2023-04-19T05:42:36;104143.40;;;4.20
65290;BMP180;51893;59.754;10.110;2023-04-19T05:45:08;104143.00;;;4.30
65290;BMP180;51893;59.754;10.110;2023-04-19T05:47:36;104145.60;;;4.30
65290;BMP180;51893;59.754;10.110;2023-04-19T05:50:07;104145.40;;;4.34
65290;BMP180;51893;59.754;10.110;2023-04-19T05:52:34;104147.20;;;4.40
65290;BMP180;51893;59.754;10.110;2023-04-19T05:55:03;104146.60;;;4.40
65290;BMP180;51893;59.754;10.110;2023-04-19T05:57:31;104144.00;;;4.50
65290;BMP180;51893;59.754;10.110;2023-04-19T05:59:58;104148.00;;;4.50
65290;BMP180;51893;59.754;10.110;2023-04-19T06:02:26;104144.00;;;4.60
65290;BMP180;51893;59.754;10.110;2023-04-19T06:04:53;104149.00;;;4.50
65290;BMP180;51893;59.754;10.110;2023-04-19T06:07:20;104148.80;;;4.50
65290;BMP180;51893;59.754;10.110;2023-04-19T06:10:00;104145.60;;;4.40
65290;BMP180;51893;59.754;10.110;2023-04-19T06:12:27;104153.80;;;4.40
65290;BMP180;51893;59.754;10.110;2023-04-19T06:14:55;104153.60;;;4.40
65290;BMP180;51893;59.754;10.110;2023-04-19T06:17:22;104152.80;;;4.48
65290;BMP180;51893;59.754;10.110;2023-04-19T06:19:53;104152.60;;;4.50
65290;BMP180;51893;59.754;10.110;2023-04-19T06:22:20;104151.00;;;4.60
65290;BMP180;51893;59.754;10.110;2023-04-19T06:24:47;104151.00;;;4.70
65290;BMP180;51893;59.754;10.110;2023-04-19T06:27:15;104151.00;;;4.72
65290;BMP180;51893;59.754;10.110;2023-04-19T06:29:42;104154.40;;;4.80
65290;BMP180;51893;59.754;10.110;2023-04-19T06:32:09;104152.00;;;4.90
65290;BMP180;51893;59.754;10.110;2023-04-19T06:34:36;104147.40;;;4.90
65290;BMP180;51893;59.754;10.110;2023-04-19T06:37:04;104145.40;;;5.00
65290;BMP180;51893;59.754;10.110;2023-04-19T06:39:31;104142.40;;;5.10
65290;BMP180;51893;59.754;10.110;2023-04-19T06:41:59;104144.40;;;5.18
65290;BMP180;51893;59.754;10.110;2023-04-19T06:44:28;104143.60;;;5.20
65290;BMP180;51893;59.754;10.110;2023-04-19T06:46:55;104141.80;;;5.20
65290;BMP180;51893;59.754;10.110;2023-04-19T06:49:23;104142.60;;;5.20
65290;BMP180;51893;59.754;10.110;2023-04-19T06:51:55;104141.60;;;5.30
65290;BMP180;51893;59.754;10.110;2023-04-19T06:54:24;104143.20;;;5.30
65290;BMP180;51893;59.754;10.110;2023-04-19T06:56:50;104142.20;;;5.40
65290;BMP180;51893;59.754;10.110;2023-04-19T06:59:20;104141.60;;;5.40
65290;BMP180;51893;59.754;10.110;2023-04-19T07:01:47;104138.00;;;5.50
65290;BMP180;51893;59.754;10.110;2023-04-19T07:04:14;104133.40;;;5.60
65290;BMP180;51893;59.754;10.110;2023-04-19T07:06:48;104136.00;;;5.60
65290;BMP180;51893;59.754;10.110;2023-04-19T07:09:16;104138.60;;;5.70
65290;BMP180;51893;59.754;10.110;2023-04-19T07:11:45;104138.20;;;5.70
65290;BMP180;51893;59.754;10.110;2023-04-19T07:14:13;104136.20;;;5.70
65290;BMP180;51893;59.754;10.110;2023-04-19T07:16:42;104139.60;;;5.80
65290;BMP180;51893;59.754;10.110;2023-04-19T07:19:12;104139.40;;;5.90
65290;BMP180;51893;59.754;10.110;2023-04-19T07:21:41;104139.20;;;6.00
65290;BMP180;51893;59.754;10.110;2023-04-19T07:24:07;104135.20;;;6.10
65290;BMP180;51893;59.754;10.110;2023-04-19T07:26:35;104129.40;;;6.20
65290;BMP180;51893;59.754;10.110;2023-04-19T07:29:03;104126.80;;;6.28
65290;BMP180;51893;59.754;10.110;2023-04-19T07:31:44;104125.00;;;6.40
65290;BMP180;51893;59.754;10.110;2023-04-19T07:34:10;104124.20;;;6.50
65290;BMP180;51893;59.754;10.110;2023-04-19T07:36:38;104121.60;;;6.58
65290;BMP180;51893;59.754;10.110;2023-04-19T07:39:05;104123.80;;;6.64
65290;BMP180;51893;59.754;10.110;2023-04-19T07:41:31;104126.40;;;6.70
65290;BMP180;51893;59.754;10.110;2023-04-19T07:43:58;104123.40;;;6.70
65290;BMP180;51893;59.754;10.110;2023-04-19T07:46:26;104111.40;;;6.90
65290;BMP180;51893;59.754;10.110;2023-04-19T07:48:53;104111.80;;;7.00
65290;BMP180;51893;59.754;10.110;2023-04-19T07:51:20;104106.00;;;7.10
65290;BMP180;51893;59.754;10.110;2023-04-19T07:53:49;104104.60;;;7.20
65290;BMP180;51893;59.754;10.110;2023-04-19T07:56:15;104107.80;;;7.30
65290;BMP180;51893;59.754;10.110;2023-04-19T07:58:47;104105.80;;;7.40
65290;BMP180;51893;59.754;10.110;2023-04-19T08:01:30;104108.00;;;7.50
65290;BMP180;51893;59.754;10.110;2023-04-19T08:04:01;104106.20;;;7.60
65290;BMP180;51893;59.754;10.110;2023-04-19T08:06:28;104104.00;;;7.70
65290;BMP180;51893;59.754;10.110;2023-04-19T08:08:58;104102.20;;;7.80
65290;BMP180;51893;59.754;10.110;2023-04-19T08:11:25;104100.60;;;8.00
65290;BMP180;51893;59.754;10.110;2023-04-19T08:13:52;104101.40;;;8.10
65290;BMP180;51893;59.754;10.110;2023-04-19T08:16:35;104102.00;;;8.18
65290;BMP180;51893;59.754;10.110;2023-04-19T08:19:05;104100.80;;;8.20
65290;BMP180;51893;59.754;10.110;2023-04-19T08:21:33;104099.20;;;8.30
65290;BMP180;51893;59.754;10.110;2023-04-19T08:24:07;104097.20;;;8.40
65290;BMP180;51893;59.754;10.110;2023-04-19T08:26:39;104093.60;;;8.58
65290;BMP180;51893;59.754;10.110;2023-04-19T08:29:06;104094.20;;;8.62
65290;BMP180;51893;59.754;10.110;2023-04-19T08:31:35;104097.00;;;8.76
65290;BMP180;51893;59.754;10.110;2023-04-19T08:34:02;104095.40;;;8.88
65290;BMP180;51893;59.754;10.110;2023-04-19T08:36:29;104101.40;;;9.00
65290;BMP180;51893;59.754;10.110;2023-04-19T08:39:10;104095.60;;;9.08
65290;BMP180;51893;59.754;10.110;2023-04-19T08:41:55;104095.40;;;9.16
65290;BMP180;51893;59.754;10.110;2023-04-19T08:44:38;104102.80;;;9.30
65290;BMP180;51893;59.754;10.110;2023-04-19T08:47:23;104099.20;;;9.42
65290;BMP180;51893;59.754;10.110;2023-04-19T08:50:02;104101.00;;;9.60
65290;BMP180;51893;59.754;10.110;2023-04-19T08:52:36;104100.20;;;9.68
65290;BMP180;51893;59.754;10.110;2023-04-19T08:55:20;104099.00;;;9.80
65290;BMP180;51893;59.754;10.110;2023-04-19T08:57:49;104097.60;;;9.90
65290;BMP180;51893;59.754;10.110;2023-04-19T09:00:18;104099.40;;;10.00
65290;BMP180;51893;59.754;10.110;2023-04-19T09:02:47;104096.00;;;10.20
65290;BMP180;51893;59.754;10.110;2023-04-19T09:05:19;104093.20;;;10.30
65290;BMP180;51893;59.754;10.110;2023-04-19T09:07:48;104091.40;;;10.30
65290;BMP180;51893;59.754;10.110;2023-04-19T09:10:20;104089.00;;;10.40
65290;BMP180;51893;59.754;10.110;2023-04-19T09:13:03;104085.60;;;10.50
65290;BMP180;51893;59.754;10.110;2023-04-19T09:15:40;104079.60;;;10.66
65290;BMP180;51893;59.754;10.110;2023-04-19T09:18:09;104074.00;;;10.80
65290;BMP180;51893;59.754;10.110;2023-04-19T09:20:41;104073.40;;;10.90
65290;BMP180;51893;59.754;10.110;2023-04-19T09:23:13;104073.00;;;11.00
65290;BMP180;51893;59.754;10.110;2023-04-19T09:26:00;104070.00;;;11.14
65290;BMP180;51893;59.754;10.110;2023-04-19T09:28:34;104066.80;;;11.30
65290;BMP180;51893;59.754;10.110;2023-04-19T09:31:11;104059.80;;;11.40
65290;BMP180;51893;59.754;10.110;2023-04-19T09:34:17;104056.80;;;11.60
65290;BMP180;51893;59.754;10.110;2023-04-19T09:36:45;104054.00;;;11.70
65290;BMP180;51893;59.754;10.110;2023-04-19T09:39:12;104059.60;;;11.80
65290;BMP180;51893;59.754;10.110;2023-04-19T09:41:53;104052.80;;;11.92
65290;BMP180;51893;59.754;10.110;2023-04-19T09:44:20;104048.00;;;12.00
65290;BMP180;51893;59.754;10.110;2023-04-19T09:46:57;104045.20;;;12.00
65290;BMP180;51893;59.754;10.110;2023-04-19T09:49:24;104040.80;;;12.10
65290;BMP180;51893;59.754;10.110;2023-04-19T09:52:14;104038.40;;;12.22
65290;BMP180;51893;59.754;10.110;2023-04-19T09:54:41;104032.00;;;12.40
65290;BMP180;51893;59.754;10.110;2023-04-19T09:57:08;104029.60;;;12.60
65290;BMP180;51893;59.754;10.110;2023-04-19T09:59:37;104028.00;;;12.80
65290;BMP180;51893;59.754;10.110;2023-04-19T10:02:09;104026.80;;;13.00
65290;BMP180;51893;59.754;10.110;2023-04-19T10:04:39;104022.20;;;13.10
65290;BMP180;51893;59.754;10.110;2023-04-19T10:07:27;104022.40;;;13.20
65290;BMP180;51893;59.754;10.110;2023-04-19T10:10:01;104021.20;;;13.30
65290;BMP180;51893;59.754;10.110;2023-04-19T10:12:52;104016.80;;;13.30
65290;BMP180;51893;59.754;10.110;2023-04-19T10:15:22;104018.00;;;13.40
65290;BMP180;51893;59.754;10.110;2023-04-19T10:17:51;104016.80;;;13.50
65290;BMP180;51893;59.754;10.110;2023-04-19T10:20:56;104011.60;;;13.60
65290;BMP180;51893;59.754;10.110;2023-04-19T10:23:33;104005.00;;;13.80
65290;BMP180;51893;59.754;10.110;2023-04-19T10:26:01;104004.20;;;14.00
65290;BMP180;51893;59.754;10.110;2023-04-19T10:28:30;103998.60;;;14.00
65290;BMP180;51893;59.754;10.110;2023-04-19T10:31:03;103997.60;;;14.10
65290;BMP180;51893;59.754;10.110;2023-04-19T10:33:35;103986.00;;;14.20
65290;BMP180;51893;59.754;10.110;2023-04-19T10:36:07;103986.20;;;14.36
65290;BMP180;51893;59.754;10.110;2023-04-19T10:38:55;103982.00;;;14.50
65290;BMP180;51893;59.754;10.110;2023-04-19T10:41:56;103979.80;;;14.60
65290;BMP180;51893;59.754;10.110;2023-04-19T10:44:28;103977.00;;;14.70
65290;BMP180;51893;59.754;10.110;2023-04-19T10:46:58;103976.20;;;14.70
65290;BMP180;51893;59.754;10.110;2023-04-19T10:49:29;103974.60;;;14.80
65290;BMP180;51893;59.754;10.110;2023-04-19T10:51:56;103962.00;;;14.90
65290;BMP180;51893;59.754;10.110;2023-04-19T10:54:33;103964.40;;;15.04
65290;BMP180;51893;59.754;10.110;2023-04-19T10:57:05;103960.40;;;15.20
65290;BMP180;51893;59.754;10.110;2023-04-19T11:00:19;103959.20;;;15.30
65290;BMP180;51893;59.754;10.110;2023-04-19T11:02:46;103958.20;;;15.48
65290;BMP180;51893;59.754;10.110;2023-04-19T11:05:15;103953.00;;;15.50
65290;BMP180;51893;59.754;10.110;2023-04-19T11:07:45;103956.00;;;15.60
65290;BMP180;51893;59.754;10.110;2023-04-19T11:10:28;103950.00;;;15.70
65290;BMP180;51893;59.754;10.110;2023-04-19T11:12:57;103947.00;;;15.80
65290;BMP180;51893;59.754;10.110;2023-04-19T11:15:30;103941.00;;;15.90
65290;BMP180;51893;59.754;10.110;2023-04-19T11:18:01;103940.60;;;16.00
65290;BMP180;51893;59.754;10.110;2023-04-19T11:20:42;103937.80;;;16.18
65290;BMP180;51893;59.754;10.110;2023-04-19T11:23:15;103932.00;;;16.44
65290;BMP180;51893;59.754;10.110;2023-04-19T11:25:45;103928.40;;;16.60
65290;BMP180;51893;59.754;10.110;2023-04-19T11:28:14;103926.40;;;16.90
65290;BMP180;51893;59.754;10.110;2023-04-19T11:30:48;103919.60;;;17.10
65290;BMP180;51893;59.754;10.110;2023-04-19T11:33:18;103917.00;;;17.30
65290;BMP180;51893;59.754;10.110;2023-04-19T11:35:50;103910.20;;;17.50
65290;BMP180;51893;59.754;10.110;2023-04-19T11:38:17;103905.40;;;17.70
65290;BMP180;51893;59.754;10.110;2023-04-19T11:40:45;103904.40;;;18.00
65290;BMP180;51893;59.754;10.110;2023-04-19T11:43:15;103903.00;;;18.10
65290;BMP180;51893;59.754;10.110;2023-04-19T11:45:41;103904.60;;;18.30
65290;BMP180;51893;59.754;10.110;2023-04-19T11:48:15;103903.00;;;18.30
65290;BMP180;51893;59.754;10.110;2023-04-19T11:50:44;103906.60;;;18.50
65290;BMP180;51893;59.754;10.110;2023-04-19T11:53:22;103900.00;;;18.70
65290;BMP180;51893;59.754;10.110;2023-04-19T11:55:53;103896.00;;;18.70
65290;BMP180;51893;59.754;10.110;2023-04-19T12:01:16;103892.20;;;18.94
65290;BMP180;51893;59.754;10.110;2023-04-19T12:03:46;103893.60;;;19.00
65290;BMP180;51893;59.754;10.110;2023-04-19T12:06:28;103894.60;;;19.10
65290;BMP180;51893;59.754;10.110;2023-04-19T12:08:56;103893.80;;;19.20
65290;BMP180;51893;59.754;10.110;2023-04-19T12:11:45;103891.20;;;19.20
65290;BMP180;51893;59.754;10.110;2023-04-19T12:14:16;103881.40;;;19.40
65290;BMP180;51893;59.754;10.110;2023-04-19T12:19:35;103877.60;;;19.58
65290;BMP180;51893;59.754;10.110;2023-04-19T12:22:12;103874.40;;;19.60
65290;BMP180;51893;59.754;10.110;2023-04-19T12:24:41;103875.60;;;19.58
65290;BMP180;51893;59.754;10.110;2023-04-19T12:27:10;103867.20;;;19.68
65290;BMP180;51893;59.754;10.110;2023-04-19T12:29:38;103864.20;;;19.60
65290;BMP180;51893;59.754;10.110;2023-04-19T12:32:06;103869.20;;;19.50
65290;BMP180;51893;59.754;10.110;2023-04-19T12:34:33;103863.60;;;19.70
65290;BMP180;51893;59.754;10.110;2023-04-19T12:37:00;103857.00;;;19.80
65290;BMP180;51893;59.754;10.110;2023-04-19T12:39:29;103859.00;;;19.80
65290;BMP180;51893;59.754;10.110;2023-04-19T12:41:56;103862.20;;;19.64
65290;BMP180;51893;59.754;10.110;2023-04-19T12:44:24;103849.40;;;19.50
65290;BMP180;51893;59.754;10.110;2023-04-19T12:46:51;103851.60;;;19.46
65290;BMP180;51893;59.754;10.110;2023-04-19T12:49:24;103855.00;;;19.30
65290;BMP180;51893;59.754;10.110;2023-04-19T12:51:50;103850.20;;;19.20
65290;BMP180;51893;59.754;10.110;2023-04-19T12:54:19;103841.80;;;19.20
65290;BMP180;51893;59.754;10.110;2023-04-19T12:56:49;103826.40;;;19.38
65290;BMP180;51893;59.754;10.110;2023-04-19T12:59:16;103828.20;;;19.62
65290;BMP180;51893;59.754;10.110;2023-04-19T13:01:44;103832.40;;;19.70
65290;BMP180;51893;59.754;10.110;2023-04-19T13:04:13;103831.40;;;19.52
65290;BMP180;51893;59.754;10.110;2023-04-19T13:06:41;103827.60;;;19.50
65290;BMP180;51893;59.754;10.110;2023-04-19T13:09:07;103825.20;;;19.40
65290;BMP180;51893;59.754;10.110;2023-04-19T13:11:37;103820.20;;;19.30
65290;BMP180;51893;59.754;10.110;2023-04-19T13:14:04;103818.40;;;19.20
65290;BMP180;51893;59.754;10.110;2023-04-19T13:16:30;103821.40;;;19.10
65290;BMP180;51893;59.754;10.110;2023-04-19T13:18:57;103818.20;;;19.10
65290;BMP180;51893;59.754;10.110;2023-04-19T13:21:25;103813.60;;;19.20
65290;BMP180;51893;59.754;10.110;2023-04-19T13:23:54;103806.80;;;19.44
65290;BMP180;51893;59.754;10.110;2023-04-19T13:26:23;103804.40;;;19.70
65290;BMP180;51893;59.754;10.110;2023-04-19T13:28:53;103805.80;;;19.80
65290;BMP180;51893;59.754;10.110;2023-04-19T13:31:24;103806.80;;;20.00
65290;BMP180;51893;59.754;10.110;2023-04-19T13:33:53;103807.40;;;20.00
65290;BMP180;51893;59.754;10.110;2023-04-19T13:36:20;103797.00;;;19.90
65290;BMP180;51893;59.754;10.110;2023-04-19T13:38:48;103794.60;;;20.00
65290;BMP180;51893;59.754;10.110;2023-04-19T13:41:14;103790.40;;;20.30
65290;BMP180;51893;59.754;10.110;2023-04-19T13:43:44;103789.20;;;20.50
65290;BMP180;51893;59.754;10.110;2023-04-19T13:46:10;103784.00;;;20.70
65290;BMP180;51893;59.754;10.110;2023-04-19T13:48:37;103774.80;;;20.80
65290;BMP180;51893;59.754;10.110;2023-04-19T13:51:06;103779.80;;;20.90
65290;BMP180;51893;59.754;10.110;2023-04-19T13:53:34;103774.40;;;21.00
65290;BMP180;51893;59.754;10.110;2023-04-19T13:56:03;103770.00;;;21.08
65290;BMP180;51893;59.754;10.110;2023-04-19T13:58:29;103765.80;;;21.20
65290;BMP180;51893;59.754;10.110;2023-04-19T14:00:56;103762.60;;;21.20
65290;BMP180;51893;59.754;10.110;2023-04-19T14:03:24;103763.80;;;21.30
65290;BMP180;51893;59.754;10.110;2023-04-19T14:05:52;103769.00;;;21.30
65290;BMP180;51893;59.754;10.110;2023-04-19T14:08:21;103762.60;;;21.30
65290;BMP180;51893;59.754;10.110;2023-04-19T14:10:50;103758.60;;;21.40
65290;BMP180;51893;59.754;10.110;2023-04-19T14:13:17;103764.40;;;21.50